Logo AVAMET
Benvolgut visitant, si us plau, ingressa Recuperar contrasenya

Bétera la Conarda

Dades diàries. Acumulats / Últims 30 dies disponibles

Data Temperatura (°C) Humitat rel. (%) Pressió rel. (hPa) Vent (km/h) Precipitació
Mínima Mitjana Màxima Amplitud
tèrmica
Mínima Mitjana Màxima Mínima Mitjana Màxima Predom. Mitjana Ràfega
màxima
Total
(mm)
Índex-n
Mínima Mitjana Màxima Mínima Mitjana Màxima n
0 a 1
P0 max
mm 5'
Dades mensuals acumulades fins l'últim dia disponible
12/2019 6,7 8,7 11,2 12,5 11,4 16,2 20,6 13,9 39 73 95 1.005 1.018 1.027   55,0 51,8
Dades anuals acumulades fins l'últim dia disponible
2019 1,3 13,0 25,3 18,2 11,4 23,4 41,0 39,7 18 65 96 992 1.017 1.036   5,4 85,0 360,8
Últims 30 dies disponibles
12-12-2019 7,1     11,1     15,0 7,9 53 63 72 1.008 1.015 1.022 42,0 0,0
11-12-2019 6,7     12,5     18,3 11,6 47 57 66 1.015 1.019 1.023 26,0 0,0
10-12-2019 8,7     14,0     19,3 10,6 40 59 78 1.022 1.024 1.026 24,0 0,0
09-12-2019 8,4     14,5     20,6 12,2 39 65 91 1.022 1.025 1.027 23,0 0,0
08-12-2019 6,7     13,2     19,6 12,9 54 73 92 1.020 1.023 1.025 16,0 0,2
07-12-2019 7,1     12,3     17,5 10,4 59 77 94 1.022 1.024 1.025 16,0 0,2
06-12-2019 9,1     11,7     14,2 5,1 85 90 95 1.022 1.024 1.025 16,0 0,2
05-12-2019 10,6     11,7     12,7 2,1 88 91 94 1.010 1.017 1.023 27,0 15,2 0,51 0,80
04-12-2019 9,9     12,3     14,7 4,8 72 83 94 1.005 1.008 1.010 55,0 21,6 0,34 0,50
03-12-2019 8,4     9,9     11,4 3,0 68 81 93 1.011 1.015 1.018 40,0 9,6 0,54 0,60
02-12-2019 10,7     11,7     12,7 2,0 63 76 89 1.012 1.015 1.018 40,0 4,8 0,19 0,40
01-12-2019 11,2     15,0     18,8 7,6 44 64 84 1.010 1.012 1.013 27,0 0,0
30-11-2019 10,4     16,4     22,3 11,9 51 69 86 1.013 1.017 1.020 31,0 0,0
29-11-2019 14,3     18,3     22,3 8,0 52 64 76 1.015 1.018 1.020 34,0 0,0
28-11-2019 12,2     15,5     18,8 6,6 54 64 73 1.012 1.015 1.017 32,0 0,0
27-11-2019 14,6     17,9     21,3 6,7 45 58 70 1.007 1.010 1.013 37,0 0,0
26-11-2019 11,8     17,1     22,3 10,5 49 64 79 1.008 1.011 1.014 42,0 0,0
25-11-2019 12,1     17,1     22,2 10,1 45 61 76 1.011 1.013 1.015 32,0 0,0
24-11-2019 9,3     14,3     19,4 10,1 38 51 64 1.007 1.010 1.013 32,0 0,0
23-11-2019 11,4     14,7     17,9 6,5 40 62 84 992 1.000 1.007 34,0 0,2
22-11-2019 8,4     11,8     15,3 6,9 70 82 94 993 1.001 1.008 23,0 1,6 0,42 0,40
21-11-2019 6,8     11,1     15,4 8,6 60 74 87 1.007 1.009 1.010 24,0 0,0
20-11-2019 6,1     11,4     16,7 10,6 39 62 84 1.009 1.012 1.015 23,0 0,8
19-11-2019 4,3     10,8     17,3 13,0 33 53 73 1.014 1.016 1.018 23,0 0,0
18-11-2019 8,0     12,3     16,7 8,7 39 61 82 1.007 1.012 1.016 44,0 0,0
17-11-2019 5,9     10,8     15,8 9,9 44 60 76 1.008 1.011 1.014 40,0 0,0
16-11-2019 4,6     11,2     17,8 13,2 27 53 78 1.007 1.011 1.015 29,0 0,0
15-11-2019 6,1     11,4     16,7 10,6 40 59 77 1.000 1.004 1.007 26,0 0,0
14-11-2019 7,5     12,2     17,0 9,5 50 67 84 999 1.004 1.008 44,0 0,0
13-11-2019 9,0     14,6     20,2 11,2 40 63 86 1.004 1.008 1.011 45,0 1,2
Últims 13 mesos disponibles
11/2019 4,3 10,6 19,7 15,2 15,3 19,9 28,9 24,6 46 58 82 1.000 1.010 1.018 56,0 3,8
10/2019 9,2 14,6 19,5 19,8 14,8 24,9 34,8 25,6 45 67 84 1.008 1.016 1.022 42,0 22,8
09/2019 14,7 18,6 22,4 23,1 20,6 27,5 34,0 19,3 58 72 81 1.011 1.018 1.025 E 0,5 70,8 107,2
08/2019 17,0 20,7 25,3 25,8 25,1 30,9 41,0 24,0 46 69 81 1.011 1.016 1.020 56,0 19,6
07/2019 19,4 20,8 23,1 26,1 27,4 31,3 36,7 17,3 50 65 78 1.005 1.014 1.021 42,0 7,2
06/2019 10,8 16,5 20,5 21,9 21,5 27,4 37,4 26,6 39 63 79 1.010 1.016 1.022 SE 0,3 52,0 0,0
05/2019 8,2 13,1 19,8 18,0 18,1 23,0 32,4 24,2 49 68 89 1.006 1.016 1.025 48,0 39,4
04/2019 6,8 10,1 13,0 15,0 14,8 19,8 29,3 22,5 50 66 86 1.002 1.013 1.026 SE 0,2 85,0 82,8
03/2019 4,8 7,8 15,3 13,7 11,7 20,0 29,2 24,4 49 60 87 1.010 1.023 1.030 SO 1,4 48,0 23,4
02/2019 1,6 5,8 10,5 11,8 11,9 17,9 25,9 24,3 39 63 78 996 1.025 1.034 77,0 0,6
01/2019 1,3 5,4 11,7 11,0 12,4 16,6 20,3 19,0 41 59 75 1.003 1.019 1.031 60,0 0,4
12/2018 4,1 7,6 11,6 13,0 14,3 18,5 24,1 20,0 51 69 82 1.008 1.025 1.031 SO 0,1 56,0 8,8
11/2018 5,5 10,2 14,3 14,1 13,6 18,0 23,9 18,4 56 75 96 1.003 1.015 1.024 45,0 149,0
Tots els anys disponibles
2018 1,3 13,3 24,9 18,0 8,4 22,8 37,2 35,9 40 67 96 994 1.016 1.036 SSO 0,3 64,0 621,6
2017 -1,3 12,8 23,9 17,8 7,9 22,7 36,8 38,1 35 67 92 999 1.020 1.037 0,0 77,0 367,7
2016 2,1 13,5 24,8 18,1 10,4 22,8 36,9 34,8 58 67 77 1.011 1.016 1.021 64,0 383,2
2015 0,1 13,1 19,6 18,2 22,7 23,3 41,8 41,7 58 66 75 1.015 1.019 1.030 135,0 427,4
2014 1,2 13,7 23,9 18,5 10,1 23,3 41,2 40,0 38 65 90 993 1.016 1.033 66,0 282,4
Temperatura (°C)
Humitat relativa (%)
Velocitat del vent i ràfega màxima (km/h)
Direcció del vent (°)
Pressió (hPa)
Precipitació (mm)
Nota sobre les dades: s'avisa a l'usuari de la provisionalitat i no oficialitat d'aquestes dades
Logo AVAMET blanc
Web allotjada a Sollutia
Llicència de Creative CommonsLa web d'AVAMET i els seus continguts estan subjectes a una llicència de
Reconeixement - No Comercial - Compartir igual
Últimes estacions: Aielo de Malferit - Centre (Soci), Faura (Inforatge), Benifairó de les Valls (Inforatge), Xàbia - Les Valls (Soci), Xàbia - Alt de la Granadella (Soci), Villena - Sierra de Salinas (Soci), Sueca - Centre (Inforatge) - - -